Time;durP1;ratioP1;P1;durP2;ratioP2;P2;SDS_P1;SDS_P2;PMS_P1;PMS_P2;Temp;Humidity;BMP_temperature;BMP_pressure;BME280_temperature;BME280_humidity;BME280_pressure;Samples;Min_cycle;Max_cycle;Signal;HPM_P1;HPM_P2
2023/08/25 00:02:25;;;;;;;14.05;11.05;;;;;;;;;;6231434;28;20046;-68
2023/08/25 00:05:27;;;;;;;14.15;11.95;;;;;;;;;;6262214;28;20052;-67
2023/08/25 00:08:29;;;;;;;15.52;11.43;;;;;;;;;;6229680;28;20049;-67
2023/08/25 00:11:31;;;;;;;15.95;12.63;;;;;;;;;;6281491;28;20043;-67
2023/08/25 00:14:33;;;;;;;15.68;10.82;;;;;;;;;;6258477;28;20038;-67
2023/08/25 00:17:35;;;;;;;14.75;11.65;;;;;;;;;;6238767;28;20122;-67
2023/08/25 00:20:37;;;;;;;17.27;11.52;;;;;;;;;;6273858;28;20054;-67
2023/08/25 00:23:39;;;;;;;15.02;11.40;;;;;;;;;;6276564;28;20202;-67
2023/08/25 00:26:42;;;;;;;16.85;12.02;;;;;;;;;;6263551;27;20074;-67
2023/08/25 00:29:44;;;;;;;16.65;12.45;;;;;;;;;;6229968;28;20212;-67
2023/08/25 00:32:46;;;;;;;18.13;11.82;;;;;;;;;;6248927;27;20058;-67
2023/08/25 00:35:48;;;;;;;15.95;11.50;;;;;;;;;;6245251;27;20057;-67
2023/08/25 00:38:51;;;;;;;17.50;12.70;;;;;;;;;;6265803;27;20045;-66
2023/08/25 00:41:54;;;;;;;14.95;11.40;;;;;;;;;;6264014;27;20066;-67
2023/08/25 00:44:59;;;;;;;17.20;12.32;;;;;;;;;;6227197;27;20617;-67
2023/08/25 00:48:01;;;;;;;16.75;11.75;;;;;;;;;;6247823;27;20062;-67
2023/08/25 00:51:05;;;;;;;17.73;12.48;;;;;;;;;;6234145;28;20053;-66
2023/08/25 00:54:07;;;;;;;18.00;12.77;;;;;;;;;;6246036;27;20039;-67
2023/08/25 00:57:09;;;;;;;17.25;13.00;;;;;;;;;;6282654;27;20127;-67
2023/08/25 01:00:13;;;;;;;16.88;11.63;;;;;;;;;;6247985;27;20053;-67
2023/08/25 01:03:16;;;;;;;14.85;11.60;;;;;;;;;;6231668;28;20050;-67
2023/08/25 01:06:20;;;;;;;18.70;12.48;;;;;;;;;;6281720;27;20033;-66
2023/08/25 01:09:22;;;;;;;16.90;12.13;;;;;;;;;;6270136;28;20122;-67
2023/08/25 01:12:48;;;;;;;15.10;11.90;;;;;;;;;;6266060;27;20046;-67
2023/08/25 01:15:53;;;;;;;14.88;11.85;;;;;;;;;;6261539;27;20138;-67
2023/08/25 01:18:57;;;;;;;18.17;13.30;;;;;;;;;;6230847;27;20046;-67
2023/08/25 01:22:00;;;;;;;18.70;11.88;;;;;;;;;;6283862;27;20053;-67
2023/08/25 01:25:23;;;;;;;16.73;11.85;;;;;;;;;;6258070;27;20064;-67
2023/08/25 01:28:25;;;;;;;16.45;13.07;;;;;;;;;;6275995;27;20045;-67
2023/08/25 01:31:28;;;;;;;17.08;12.23;;;;;;;;;;6253574;27;20188;-67
2023/08/25 01:34:30;;;;;;;19.50;16.70;;;;;;;;;;6233803;27;20542;-67
2023/08/25 01:37:37;;;;;;;17.73;14.40;;;;;;;;;;6234315;27;20111;-67
2023/08/25 01:40:51;;;;;;;14.95;11.60;;;;;;;;;;6299762;28;20136;-67
2023/08/25 01:43:54;;;;;;;15.93;12.20;;;;;;;;;;6260092;28;20049;-67
2023/08/25 01:47:06;;;;;;;20.42;16.02;;;;;;;;;;6247332;27;20561;-68
2023/08/25 01:50:10;;;;;;;18.27;13.98;;;;;;;;;;6248212;27;20041;-66
2023/08/25 01:53:12;;;;;;;17.00;12.40;;;;;;;;;;6262902;27;20568;-67
2023/08/25 01:56:14;;;;;;;16.88;13.73;;;;;;;;;;6231780;27;20050;-67
2023/08/25 01:59:17;;;;;;;16.85;13.07;;;;;;;;;;6283258;27;20471;-67
2023/08/25 02:02:19;;;;;;;17.67;13.77;;;;;;;;;;6248443;27;20071;-67
2023/08/25 02:05:22;;;;;;;17.02;12.77;;;;;;;;;;6255005;27;20056;-66
2023/08/25 02:08:24;;;;;;;19.27;12.75;;;;;;;;;;6289336;27;20049;-67
2023/08/25 02:11:26;;;;;;;17.17;13.57;;;;;;;;;;6233542;28;20105;-66
2023/08/25 02:14:29;;;;;;;17.90;13.23;;;;;;;;;;6235754;27;20061;-67
2023/08/25 02:17:31;;;;;;;19.83;13.95;;;;;;;;;;6274237;27;20043;-67
2023/08/25 02:20:36;;;;;;;19.00;13.85;;;;;;;;;;6237332;27;20057;-67
2023/08/25 02:23:40;;;;;;;17.95;14.15;;;;;;;;;;6256986;27;20508;-66
2023/08/25 02:26:42;;;;;;;21.83;19.17;;;;;;;;;;6236546;27;20451;-66
2023/08/25 02:29:44;;;;;;;21.67;15.63;;;;;;;;;;6254655;27;20110;-67
2023/08/25 02:32:46;;;;;;;23.77;15.10;;;;;;;;;;6246753;28;20499;-67
2023/08/25 02:35:48;;;;;;;19.50;14.48;;;;;;;;;;6225973;28;20055;-67
2023/08/25 02:38:50;;;;;;;17.92;13.60;;;;;;;;;;6257040;27;20045;-67
2023/08/25 02:41:52;;;;;;;19.52;14.82;;;;;;;;;;6207118;28;20053;-66
2023/08/25 02:44:56;;;;;;;20.08;15.02;;;;;;;;;;6253657;27;20045;-66
2023/08/25 02:47:58;;;;;;;17.38;13.90;;;;;;;;;;6327330;27;20045;-66
2023/08/25 02:51:00;;;;;;;25.67;17.33;;;;;;;;;;6254791;27;20508;-66
2023/08/25 02:54:02;;;;;;;19.60;13.40;;;;;;;;;;6266489;27;20051;-67
2023/08/25 02:57:04;;;;;;;24.85;14.27;;;;;;;;;;6240166;27;20045;-67
2023/08/25 03:00:09;;;;;;;16.98;12.52;;;;;;;;;;6254496;27;20042;-67
2023/08/25 03:03:11;;;;;;;19.38;13.73;;;;;;;;;;6248024;27;20515;-67
2023/08/25 03:06:13;;;;;;;18.75;12.98;;;;;;;;;;6243335;27;20045;-67
2023/08/25 03:09:16;;;;;;;20.73;14.10;;;;;;;;;;6262698;27;20287;-67
2023/08/25 03:12:18;;;;;;;18.77;12.85;;;;;;;;;;6228806;28;20049;-66
2023/08/25 03:15:21;;;;;;;20.42;13.75;;;;;;;;;;6223934;28;20443;-67
2023/08/25 03:18:23;;;;;;;21.42;13.43;;;;;;;;;;6240535;27;20072;-67
2023/08/25 03:21:25;;;;;;;17.92;13.68;;;;;;;;;;6228748;27;20049;-67
2023/08/25 03:24:27;;;;;;;19.90;13.95;;;;;;;;;;6280313;27;20114;-67
2023/08/25 03:27:32;;;;;;;16.95;13.30;;;;;;;;;;6269760;27;20049;-67
2023/08/25 03:30:35;;;;;;;20.60;13.20;;;;;;;;;;6242438;27;20046;-67
2023/08/25 03:33:37;;;;;;;18.33;14.50;;;;;;;;;;6254637;27;20183;-65
2023/08/25 03:36:39;;;;;;;20.60;14.45;;;;;;;;;;6280130;27;20069;-65
2023/08/25 03:39:41;;;;;;;17.75;13.43;;;;;;;;;;6263790;27;20046;-66
2023/08/25 03:42:43;;;;;;;21.48;13.60;;;;;;;;;;6291732;27;20058;-65
2023/08/25 03:45:46;;;;;;;20.65;13.98;;;;;;;;;;6286859;27;20126;-66
2023/08/25 03:48:48;;;;;;;19.67;14.07;;;;;;;;;;6250876;28;20058;-65
2023/08/25 03:51:50;;;;;;;17.75;13.93;;;;;;;;;;6222043;28;20124;-65
2023/08/25 03:54:53;;;;;;;20.75;14.63;;;;;;;;;;6278077;28;20054;-65
2023/08/25 03:57:55;;;;;;;19.52;13.57;;;;;;;;;;6214524;28;20048;-65
2023/08/25 04:00:59;;;;;;;18.15;13.57;;;;;;;;;;6282444;27;20063;-66
2023/08/25 04:04:02;;;;;;;18.73;15.10;;;;;;;;;;6257000;27;20122;-65
2023/08/25 04:07:04;;;;;;;19.92;15.27;;;;;;;;;;6288625;27;20043;-65
2023/08/25 04:10:06;;;;;;;20.00;14.55;;;;;;;;;;6261729;27;20054;-66
2023/08/25 04:13:08;;;;;;;17.63;13.55;;;;;;;;;;6290267;27;20492;-66
2023/08/25 04:16:11;;;;;;;18.42;14.93;;;;;;;;;;6292398;27;20109;-65
2023/08/25 04:19:16;;;;;;;20.75;15.98;;;;;;;;;;6281305;27;20035;-65
2023/08/25 04:22:19;;;;;;;21.25;14.93;;;;;;;;;;6236639;27;20073;-65
2023/08/25 04:25:21;;;;;;;22.35;18.95;;;;;;;;;;6282336;27;20795;-65
2023/08/25 04:28:25;;;;;;;19.98;16.30;;;;;;;;;;6241499;27;20053;-65
2023/08/25 04:31:27;;;;;;;19.80;17.65;;;;;;;;;;6251106;27;20506;-66
2023/08/25 04:34:32;;;;;;;22.27;15.93;;;;;;;;;;6242031;27;20184;-66
2023/08/25 04:37:34;;;;;;;18.67;14.45;;;;;;;;;;6238763;27;20126;-65
2023/08/25 04:40:37;;;;;;;22.15;15.80;;;;;;;;;;6306552;27;20049;-66
2023/08/25 04:43:39;;;;;;;20.88;15.80;;;;;;;;;;6266108;27;20057;-66
2023/08/25 04:46:41;;;;;;;21.10;15.70;;;;;;;;;;6241628;27;20053;-66
2023/08/25 04:49:48;;;;;;;25.50;16.63;;;;;;;;;;6234933;27;20628;-66
2023/08/25 04:52:51;;;;;;;18.88;14.77;;;;;;;;;;6240904;27;20049;-66
2023/08/25 04:55:53;;;;;;;25.65;17.55;;;;;;;;;;6261736;27;20060;-65
2023/08/25 04:58:55;;;;;;;29.88;23.10;;;;;;;;;;6246121;27;20088;-65
2023/08/25 05:01:58;;;;;;;30.60;23.83;;;;;;;;;;6241193;27;20814;-66
2023/08/25 05:05:03;;;;;;;33.55;25.45;;;;;;;;;;6240632;27;20042;-65
2023/08/25 05:08:07;;;;;;;31.42;20.67;;;;;;;;;;6227500;27;20136;-66
2023/08/25 05:11:09;;;;;;;26.95;18.17;;;;;;;;;;6255155;27;20444;-65
2023/08/25 05:14:13;;;;;;;27.25;19.08;;;;;;;;;;6235608;27;20049;-67
2023/08/25 05:17:16;;;;;;;24.52;18.45;;;;;;;;;;6209666;28;20042;-67
2023/08/25 05:20:21;;;;;;;26.48;18.00;;;;;;;;;;6235145;27;20046;-67
2023/08/25 05:23:23;;;;;;;27.58;18.52;;;;;;;;;;6227210;27;20043;-67
2023/08/25 05:26:26;;;;;;;22.30;17.50;;;;;;;;;;6239512;27;20041;-66
2023/08/25 05:29:32;;;;;;;22.63;16.67;;;;;;;;;;6294547;27;20047;-67
2023/08/25 05:32:40;;;;;;;23.33;17.98;;;;;;;;;;6222274;28;20046;-67
2023/08/25 05:36:06;;;;;;;23.80;17.73;;;;;;;;;;6250845;27;20052;-67
2023/08/25 05:39:09;;;;;;;20.67;17.27;;;;;;;;;;6273051;27;20039;-67
2023/08/25 05:42:11;;;;;;;31.13;17.35;;;;;;;;;;6215067;28;20041;-67
2023/08/25 05:45:13;;;;;;;26.42;17.05;;;;;;;;;;6256506;27;20077;-66
2023/08/25 05:48:16;;;;;;;23.77;17.05;;;;;;;;;;6226717;27;20051;-67
2023/08/25 05:51:20;;;;;;;21.90;17.25;;;;;;;;;;6314696;27;20150;-67
2023/08/25 05:54:22;;;;;;;21.10;15.73;;;;;;;;;;6265641;27;20042;-67
2023/08/25 05:57:24;;;;;;;20.83;14.73;;;;;;;;;;6276716;27;20082;-67
2023/08/25 06:00:26;;;;;;;25.23;16.92;;;;;;;;;;6289869;27;20439;-67
2023/08/25 06:03:28;;;;;;;21.02;16.40;;;;;;;;;;6232028;27;20041;-67
2023/08/25 06:06:30;;;;;;;19.88;14.68;;;;;;;;;;6278557;27;20054;-67
2023/08/25 06:09:32;;;;;;;22.05;16.55;;;;;;;;;;6274363;27;20061;-67
2023/08/25 06:12:34;;;;;;;20.73;15.15;;;;;;;;;;6253405;27;20057;-67
2023/08/25 06:15:37;;;;;;;19.95;15.27;;;;;;;;;;6225455;27;20046;-67
2023/08/25 06:18:39;;;;;;;18.65;14.55;;;;;;;;;;6237837;27;20121;-65
2023/08/25 06:21:41;;;;;;;19.48;13.18;;;;;;;;;;6238257;27;20045;-67
2023/08/25 06:24:43;;;;;;;19.77;14.93;;;;;;;;;;6239051;27;20562;-66
2023/08/25 06:27:45;;;;;;;21.77;15.35;;;;;;;;;;6257057;27;20049;-66
2023/08/25 06:30:52;;;;;;;23.17;16.48;;;;;;;;;;6258841;27;20118;-67
2023/08/25 06:33:54;;;;;;;21.48;14.07;;;;;;;;;;6255059;27;20046;-67
2023/08/25 06:36:57;;;;;;;20.35;14.73;;;;;;;;;;6294118;27;20393;-67
2023/08/25 06:39:59;;;;;;;20.63;14.02;;;;;;;;;;6258225;27;20053;-67
2023/08/25 06:43:01;;;;;;;21.20;14.35;;;;;;;;;;6297493;27;20071;-67
2023/08/25 06:46:03;;;;;;;18.63;13.95;;;;;;;;;;6259306;27;20046;-67
2023/08/25 06:49:06;;;;;;;18.73;13.35;;;;;;;;;;6252274;27;20051;-66
2023/08/25 06:52:08;;;;;;;19.38;14.13;;;;;;;;;;6246996;27;20046;-67
2023/08/25 06:55:11;;;;;;;17.08;13.88;;;;;;;;;;6255416;27;20049;-68
2023/08/25 06:58:13;;;;;;;16.73;13.23;;;;;;;;;;6241955;27;20563;-67
2023/08/25 07:01:15;;;;;;;19.40;13.35;;;;;;;;;;6246604;27;20045;-68
2023/08/25 07:04:17;;;;;;;18.05;13.43;;;;;;;;;;6228214;28;20053;-67
2023/08/25 07:07:26;;;;;;;17.58;12.65;;;;;;;;;;6242359;27;20099;-68
2023/08/25 07:10:28;;;;;;;17.58;13.43;;;;;;;;;;6268309;27;20052;-68
2023/08/25 07:13:33;;;;;;;16.52;12.82;;;;;;;;;;6309674;27;20041;-67
2023/08/25 07:16:36;;;;;;;20.48;13.35;;;;;;;;;;6279672;27;20054;-68
2023/08/25 07:19:38;;;;;;;17.27;13.38;;;;;;;;;;6261290;27;20048;-68
2023/08/25 07:22:40;;;;;;;14.85;12.48;;;;;;;;;;6237447;27;20049;-68
2023/08/25 07:25:43;;;;;;;16.98;12.38;;;;;;;;;;6288214;27;20128;-68
2023/08/25 07:28:46;;;;;;;16.27;14.63;;;;;;;;;;6270450;27;20413;-68
2023/08/25 07:31:48;;;;;;;17.25;12.38;;;;;;;;;;6257968;27;20049;-66
2023/08/25 07:34:50;;;;;;;17.77;13.13;;;;;;;;;;6247350;27;20546;-67
2023/08/25 07:37:53;;;;;;;15.43;13.00;;;;;;;;;;6244497;28;20062;-66
2023/08/25 07:40:57;;;;;;;16.25;11.32;;;;;;;;;;6245641;28;20049;-66
2023/08/25 07:43:59;;;;;;;17.95;14.50;;;;;;;;;;6270077;27;20050;-67
2023/08/25 07:47:04;;;;;;;15.48;12.35;;;;;;;;;;6265822;27;20538;-66
2023/08/25 07:50:06;;;;;;;;;;;;;;;;;;6244814;28;20042;-66
2023/08/25 07:53:08;;;;;;;18.50;11.85;;;;;;;;;;6233077;28;19955;-66
2023/08/25 07:56:11;;;;;;;18.25;11.82;;;;;;;;;;6252529;28;20527;-67
2023/08/25 07:59:14;;;;;;;14.30;10.80;;;;;;;;;;6253515;28;20074;-66
2023/08/25 08:02:16;;;;;;;14.05;11.30;;;;;;;;;;6305181;28;20508;-67
2023/08/25 08:05:19;;;;;;;13.90;11.45;;;;;;;;;;6252808;28;20041;-66
2023/08/25 08:08:21;;;;;;;15.88;10.93;;;;;;;;;;6226867;28;20049;-65
2023/08/25 08:11:23;;;;;;;15.68;11.30;;;;;;;;;;6238616;28;20046;-67
2023/08/25 08:14:25;;;;;;;16.73;10.52;;;;;;;;;;6233242;28;20080;-67
2023/08/25 08:17:46;;;;;;;14.07;10.70;;;;;;;;;;6249482;28;20464;-66
2023/08/25 08:20:48;;;;;;;14.10;9.60;;;;;;;;;;6246081;28;20048;-68
2023/08/25 08:23:50;;;;;;;30.70;11.73;;;;;;;;;;6230447;28;20054;-66
2023/08/25 08:26:52;;;;;;;12.55;9.70;;;;;;;;;;6262229;28;20557;-67
2023/08/25 08:29:54;;;;;;;13.80;9.50;;;;;;;;;;6255606;27;20046;-65
2023/08/25 08:32:58;;;;;;;11.85;9.10;;;;;;;;;;6249349;28;20050;-65
2023/08/25 08:36:00;;;;;;;13.63;9.68;;;;;;;;;;6262096;28;20043;-66
2023/08/25 08:39:07;;;;;;;11.10;7.10;;;;;;;;;;6305018;27;20048;-66
2023/08/25 08:42:13;;;;;;;8.85;7.38;;;;;;;;;;6248836;28;20041;-66
2023/08/25 08:45:17;;;;;;;9.80;7.45;;;;;;;;;;6249823;28;20591;-66
2023/08/25 08:48:21;;;;;;;9.85;6.95;;;;;;;;;;6233475;28;20076;-66
2023/08/25 08:51:25;;;;;;;10.77;7.22;;;;;;;;;;6255714;27;20106;-65
2023/08/25 08:54:28;;;;;;;11.80;6.95;;;;;;;;;;6248626;27;20053;-66
2023/08/25 08:57:30;;;;;;;9.75;7.30;;;;;;;;;;6238299;27;20053;-67
2023/08/25 09:00:33;;;;;;;10.35;8.07;;;;;;;;;;6257341;27;20050;-66
2023/08/25 09:03:37;;;;;;;9.18;6.13;;;;;;;;;;6234515;27;20176;-67
2023/08/25 09:06:40;;;;;;;10.50;6.15;;;;;;;;;;6228515;27;20046;-69
2023/08/25 09:09:45;;;;;;;11.00;7.38;;;;;;;;;;6245795;27;20090;-68
2023/08/25 09:12:49;;;;;;;9.15;6.78;;;;;;;;;;6247989;27;20053;-67
2023/08/25 09:15:54;;;;;;;9.50;6.15;;;;;;;;;;6224863;27;20140;-67
2023/08/25 09:19:00;;;;;;;9.25;5.60;;;;;;;;;;6221583;28;20057;-67
2023/08/25 09:22:02;;;;;;;8.90;5.68;;;;;;;;;;6225936;28;20124;-67
2023/08/25 09:25:06;;;;;;;10.23;6.05;;;;;;;;;;6234911;28;20138;-67
2023/08/25 09:28:09;;;;;;;9.50;5.53;;;;;;;;;;6233546;28;20479;-66
2023/08/25 09:31:22;;;;;;;8.65;5.93;;;;;;;;;;6254153;27;20132;-67
2023/08/25 09:34:24;;;;;;;10.63;6.15;;;;;;;;;;6238244;27;20623;-67
2023/08/25 09:37:41;;;;;;;8.95;6.43;;;;;;;;;;6242783;27;20479;-66
2023/08/25 09:40:46;;;;;;;9.02;5.90;;;;;;;;;;6274094;27;20283;-66
2023/08/25 09:43:48;;;;;;;8.18;6.10;;;;;;;;;;6273531;27;20309;-67
2023/08/25 09:46:51;;;;;;;8.38;5.28;;;;;;;;;;6297796;27;20063;-67
2023/08/25 09:49:53;;;;;;;7.50;4.68;;;;;;;;;;6231626;28;20084;-67
2023/08/25 09:52:55;;;;;;;10.15;5.95;;;;;;;;;;6250861;27;20729;-67
2023/08/25 09:56:06;;;;;;;9.40;4.90;;;;;;;;;;6287937;27;20041;-67
2023/08/25 09:59:08;;;;;;;;;;;;;;;;;;6233622;27;20102;-66
2023/08/25 10:02:11;;;;;;;6.57;4.55;;;;;;;;;;6248521;27;20012;-66
2023/08/25 10:05:14;;;;;;;8.75;5.03;;;;;;;;;;6238236;27;20049;-67
2023/08/25 10:08:16;;;;;;;6.88;5.18;;;;;;;;;;6237390;27;20161;-67
2023/08/25 10:11:19;;;;;;;7.70;4.32;;;;;;;;;;6247204;27;20146;-67
2023/08/25 10:14:24;;;;;;;8.82;5.20;;;;;;;;;;6259198;27;20356;-66
2023/08/25 10:17:26;;;;;;;7.75;4.70;;;;;;;;;;6259046;27;20046;-67
2023/08/25 10:20:32;;;;;;;6.85;3.90;;;;;;;;;;6243948;27;20432;-66
2023/08/25 10:23:35;;;;;;;6.30;4.65;;;;;;;;;;6228025;28;20050;-66
2023/08/25 10:26:38;;;;;;;8.73;4.57;;;;;;;;;;6266703;27;20068;-66
2023/08/25 10:29:40;;;;;;;8.45;4.28;;;;;;;;;;6278594;27;20049;-66
2023/08/25 10:32:58;;;;;;;6.65;4.90;;;;;;;;;;6228252;27;20050;-67
2023/08/25 10:36:04;;;;;;;9.13;7.50;;;;;;;;;;6226982;27;20452;-67
2023/08/25 10:39:08;;;;;;;6.88;4.50;;;;;;;;;;6278591;27;20049;-66
2023/08/25 10:42:10;;;;;;;7.50;4.65;;;;;;;;;;6245938;27;20038;-67
2023/08/25 10:45:12;;;;;;;7.57;5.47;;;;;;;;;;6289353;27;20058;-66
2023/08/25 10:48:16;;;;;;;6.25;4.65;;;;;;;;;;6253602;27;20097;-65
2023/08/25 10:51:37;;;;;;;8.20;4.65;;;;;;;;;;6232409;27;20122;-66
2023/08/25 10:54:46;;;;;;;6.68;4.63;;;;;;;;;;6260439;27;20049;-65
2023/08/25 10:57:52;;;;;;;6.50;4.55;;;;;;;;;;6251054;27;20137;-69
2023/08/25 11:01:01;;;;;;;6.43;4.18;;;;;;;;;;6224970;27;20038;-70
2023/08/25 11:04:04;;;;;;;7.10;5.97;;;;;;;;;;6234522;27;20074;-70
2023/08/25 11:07:06;;;;;;;7.70;6.32;;;;;;;;;;6271217;27;20430;-70
2023/08/25 11:10:12;;;;;;;7.28;4.57;;;;;;;;;;6282629;27;20105;-70
2023/08/25 11:13:15;;;;;;;6.50;4.65;;;;;;;;;;6254047;27;20045;-70
2023/08/25 11:16:17;;;;;;;8.57;4.88;;;;;;;;;;6268484;27;20047;-70
2023/08/25 11:19:19;;;;;;;12.93;4.97;;;;;;;;;;6279856;27;20039;-70
2023/08/25 11:22:21;;;;;;;6.47;3.92;;;;;;;;;;6263442;27;20054;-70
2023/08/25 11:25:27;;;;;;;7.47;4.10;;;;;;;;;;6256016;27;20511;-70
2023/08/25 11:28:29;;;;;;;7.07;4.35;;;;;;;;;;6240994;27;20070;-71
2023/08/25 11:31:32;;;;;;;8.38;5.47;;;;;;;;;;6237057;27;20469;-70
2023/08/25 11:34:34;;;;;;;9.55;5.10;;;;;;;;;;6239563;27;20443;-70
2023/08/25 11:37:36;;;;;;;6.55;3.97;;;;;;;;;;6263161;27;20081;-70
2023/08/25 11:40:41;;;;;;;7.03;4.75;;;;;;;;;;6226194;28;20413;-70
2023/08/25 11:43:47;;;;;;;6.80;3.92;;;;;;;;;;6245339;27;20724;-69
2023/08/25 11:46:51;;;;;;;6.93;3.85;;;;;;;;;;6244154;28;20073;-70
2023/08/25 11:49:56;;;;;;;8.05;4.05;;;;;;;;;;6262311;27;20153;-70
2023/08/25 11:53:00;;;;;;;10.02;5.53;;;;;;;;;;6245589;28;20711;-70
2023/08/25 11:56:06;;;;;;;7.43;3.53;;;;;;;;;;6272785;28;20099;-69
2023/08/25 11:59:08;;;;;;;8.65;3.17;;;;;;;;;;6253158;28;20077;-69
2023/08/25 12:02:18;;;;;;;6.70;3.95;;;;;;;;;;6280416;28;20067;-69
2023/08/25 12:05:20;;;;;;;8.40;3.67;;;;;;;;;;6223014;28;20049;-70
2023/08/25 12:08:24;;;;;;;8.13;3.92;;;;;;;;;;6265452;28;20057;-69
2023/08/25 12:11:28;;;;;;;5.65;3.30;;;;;;;;;;6228725;28;20825;-70
2023/08/25 12:14:31;;;;;;;7.30;4.00;;;;;;;;;;6252845;28;20089;-70
2023/08/25 12:17:35;;;;;;;9.65;4.25;;;;;;;;;;6237448;28;20057;-70
2023/08/25 12:20:42;;;;;;;6.80;3.47;;;;;;;;;;6216053;28;20052;-69
2023/08/25 12:23:44;;;;;;;6.15;4.32;;;;;;;;;;6239342;27;20057;-69
2023/08/25 12:26:46;;;;;;;6.97;5.93;;;;;;;;;;6230476;28;20846;-69
2023/08/25 12:29:49;;;;;;;5.07;3.72;;;;;;;;;;6259184;27;20794;-68
2023/08/25 12:32:51;;;;;;;6.60;4.53;;;;;;;;;;6301161;27;20436;-68
2023/08/25 12:35:53;;;;;;;7.50;3.67;;;;;;;;;;6257125;27;20131;-69
2023/08/25 12:38:55;;;;;;;6.75;3.90;;;;;;;;;;6293919;27;20056;-69
2023/08/25 12:41:57;;;;;;;7.45;3.67;;;;;;;;;;6255929;27;20038;-69
2023/08/25 12:44:59;;;;;;;5.82;3.97;;;;;;;;;;6224944;27;20071;-69
2023/08/25 12:48:02;;;;;;;9.48;4.28;;;;;;;;;;6253214;27;20051;-69
2023/08/25 12:51:05;;;;;;;7.22;3.75;;;;;;;;;;6262561;27;20126;-69
2023/08/25 12:54:14;;;;;;;8.05;3.70;;;;;;;;;;6255541;27;20041;-70
2023/08/25 12:57:16;;;;;;;7.05;4.25;;;;;;;;;;6240916;27;20887;-70
2023/08/25 13:00:19;;;;;;;8.07;4.55;;;;;;;;;;6269605;27;20069;-69
2023/08/25 13:03:21;;;;;;;6.47;3.22;;;;;;;;;;6261541;27;20140;-69
2023/08/25 13:06:23;;;;;;;7.88;3.65;;;;;;;;;;6290739;27;20038;-70
2023/08/25 13:09:25;;;;;;;7.68;3.90;;;;;;;;;;6258125;27;20069;-69
2023/08/25 13:12:27;;;;;;;7.15;5.97;;;;;;;;;;6237160;27;20431;-70
2023/08/25 13:15:29;;;;;;;9.65;3.83;;;;;;;;;;6255967;27;20163;-71
2023/08/25 13:18:35;;;;;;;6.05;3.70;;;;;;;;;;6263290;27;20041;-70
2023/08/25 13:21:37;;;;;;;6.85;4.70;;;;;;;;;;6231772;27;20779;-70
2023/08/25 13:24:39;;;;;;;6.65;3.75;;;;;;;;;;6253298;27;20724;-70
2023/08/25 13:27:41;;;;;;;7.78;4.13;;;;;;;;;;6241698;27;20049;-71
2023/08/25 13:30:43;;;;;;;5.43;3.58;;;;;;;;;;6239405;27;20062;-72
2023/08/25 13:33:45;;;;;;;6.55;3.47;;;;;;;;;;6229130;27;20045;-70
2023/08/25 13:36:47;;;;;;;6.68;3.42;;;;;;;;;;6225853;27;20049;-70
2023/08/25 13:39:50;;;;;;;5.78;3.85;;;;;;;;;;6235689;28;20144;-70
2023/08/25 13:42:51;;;;;;;8.40;3.42;;;;;;;;;;6242345;27;20049;-70
2023/08/25 13:45:54;;;;;;;6.38;3.63;;;;;;;;;;6249488;27;20104;-69
2023/08/25 13:48:57;;;;;;;6.32;3.70;;;;;;;;;;6240452;27;20144;-71
2023/08/25 13:51:59;;;;;;;5.70;3.45;;;;;;;;;;6245506;27;20048;-70
2023/08/25 13:55:01;;;;;;;6.28;4.30;;;;;;;;;;6244114;27;20143;-70
2023/08/25 13:58:04;;;;;;;7.57;3.83;;;;;;;;;;6226790;27;20530;-70
2023/08/25 14:01:06;;;;;;;6.82;3.58;;;;;;;;;;6253577;27;20050;-70
2023/08/25 14:04:09;;;;;;;7.47;3.92;;;;;;;;;;6215675;28;20045;-71
2023/08/25 14:07:12;;;;;;;7.45;3.67;;;;;;;;;;6238221;27;20054;-70
2023/08/25 14:10:14;;;;;;;6.05;4.05;;;;;;;;;;6252773;27;20530;-71
2023/08/25 14:13:16;;;;;;;7.15;4.18;;;;;;;;;;6264890;27;20070;-69
2023/08/25 14:16:18;;;;;;;5.47;3.70;;;;;;;;;;6229012;28;20170;-71
2023/08/25 14:19:20;;;;;;;8.10;3.92;;;;;;;;;;6229349;28;20048;-70
2023/08/25 14:22:23;;;;;;;5.07;3.83;;;;;;;;;;6248114;28;20043;-71
2023/08/25 14:25:26;;;;;;;5.30;3.70;;;;;;;;;;6229359;28;20060;-70
2023/08/25 14:28:28;;;;;;;5.85;4.03;;;;;;;;;;6253086;27;20068;-69
2023/08/25 14:31:30;;;;;;;6.57;3.85;;;;;;;;;;6239559;27;20048;-70
2023/08/25 14:34:33;;;;;;;6.18;4.13;;;;;;;;;;6240827;27;20053;-71
2023/08/25 14:37:35;;;;;;;9.90;4.55;;;;;;;;;;6228349;27;20068;-70
2023/08/25 14:40:37;;;;;;;7.10;4.18;;;;;;;;;;6269733;27;20780;-71
2023/08/25 14:43:39;;;;;;;6.57;4.60;;;;;;;;;;6256604;27;20054;-70
2023/08/25 14:46:41;;;;;;;6.97;4.53;;;;;;;;;;6242170;28;20135;-71
2023/08/25 14:49:43;;;;;;;7.20;4.53;;;;;;;;;;6267219;27;20047;-71
2023/08/25 14:52:46;;;;;;;6.10;4.50;;;;;;;;;;6236965;27;20050;-70
2023/08/25 14:55:48;;;;;;;8.95;4.15;;;;;;;;;;6265438;27;20058;-70
2023/08/25 14:58:50;;;;;;;7.70;3.95;;;;;;;;;;6268156;27;20571;-70
2023/08/25 15:01:52;;;;;;;6.53;4.78;;;;;;;;;;6226444;27;20041;-70
2023/08/25 15:04:54;;;;;;;6.97;4.15;;;;;;;;;;6245251;27;20046;-70
2023/08/25 15:07:58;;;;;;;7.18;4.22;;;;;;;;;;6231016;27;20144;-70
2023/08/25 15:11:00;;;;;;;6.88;3.92;;;;;;;;;;6248554;27;20041;-69
2023/08/25 15:14:02;;;;;;;6.40;3.80;;;;;;;;;;6243774;27;20053;-69
2023/08/25 15:17:04;;;;;;;5.75;4.05;;;;;;;;;;6310183;27;20060;-69
2023/08/25 15:20:07;;;;;;;6.90;3.80;;;;;;;;;;6249012;27;20045;-69
2023/08/25 15:23:09;;;;;;;6.88;4.15;;;;;;;;;;6241254;27;20146;-69
2023/08/25 15:26:11;;;;;;;7.47;3.78;;;;;;;;;;6223511;28;20178;-69
2023/08/25 15:29:13;;;;;;;5.55;3.80;;;;;;;;;;6309455;27;20058;-69
2023/08/25 15:32:15;;;;;;;6.07;4.15;;;;;;;;;;6232970;27;20125;-70
2023/08/25 15:35:17;;;;;;;6.10;3.85;;;;;;;;;;6234322;27;20287;-69
2023/08/25 15:38:23;;;;;;;7.75;4.28;;;;;;;;;;6245725;27;20057;-69
2023/08/25 15:41:25;;;;;;;6.45;4.25;;;;;;;;;;6223837;28;20072;-69
2023/08/25 15:44:27;;;;;;;6.03;4.60;;;;;;;;;;6238618;27;20840;-69
2023/08/25 15:47:29;;;;;;;7.43;5.13;;;;;;;;;;6265226;27;20836;-70
2023/08/25 15:50:31;;;;;;;6.88;4.43;;;;;;;;;;6221620;27;20049;-70
2023/08/25 15:53:34;;;;;;;8.32;4.35;;;;;;;;;;6253395;28;20052;-69
2023/08/25 15:56:36;;;;;;;6.95;4.22;;;;;;;;;;6225637;28;20117;-70
2023/08/25 15:59:38;;;;;;;6.63;4.30;;;;;;;;;;6227163;28;20093;-70
2023/08/25 16:02:40;;;;;;;6.68;4.43;;;;;;;;;;6235493;28;20539;-70
2023/08/25 16:05:43;;;;;;;7.45;4.57;;;;;;;;;;6229733;28;20046;-70
2023/08/25 16:08:45;;;;;;;7.10;5.03;;;;;;;;;;6235289;28;20049;-69
2023/08/25 16:11:47;;;;;;;8.88;5.25;;;;;;;;;;6232585;28;20141;-70
2023/08/25 16:14:49;;;;;;;10.40;5.93;;;;;;;;;;6219363;28;20045;-70
2023/08/25 16:17:51;;;;;;;7.88;4.85;;;;;;;;;;6237647;28;20054;-70
2023/08/25 16:21:00;;;;;;;8.23;5.95;;;;;;;;;;6224874;28;20049;-70
2023/08/25 16:24:03;;;;;;;8.38;5.40;;;;;;;;;;6224290;28;20175;-70
2023/08/25 16:27:05;;;;;;;7.38;5.60;;;;;;;;;;6217558;28;20078;-69
2023/08/25 16:30:08;;;;;;;9.05;5.63;;;;;;;;;;6219166;28;20071;-69
2023/08/25 16:33:10;;;;;;;9.25;5.40;;;;;;;;;;6237391;28;20041;-69
2023/08/25 16:36:12;;;;;;;9.32;6.75;;;;;;;;;;6222161;28;20130;-69
2023/08/25 16:39:15;;;;;;;8.48;5.93;;;;;;;;;;6248292;28;20037;-69
2023/08/25 16:42:17;;;;;;;9.95;6.43;;;;;;;;;;6227351;28;20134;-69
2023/08/25 16:45:19;;;;;;;7.32;5.20;;;;;;;;;;6227592;28;20598;-69
2023/08/25 16:48:22;;;;;;;8.07;5.63;;;;;;;;;;6233172;28;20053;-69
2023/08/25 16:51:24;;;;;;;13.43;6.07;;;;;;;;;;6233036;28;20127;-70
2023/08/25 16:54:26;;;;;;;8.40;6.13;;;;;;;;;;6243126;28;20046;-69
2023/08/25 16:57:28;;;;;;;9.73;6.22;;;;;;;;;;6224328;28;20053;-69
2023/08/25 17:00:31;;;;;;;7.43;6.03;;;;;;;;;;6268319;28;20041;-69
2023/08/25 17:03:33;;;;;;;11.05;6.93;;;;;;;;;;6226724;28;20046;-69
2023/08/25 17:06:35;;;;;;;9.70;7.20;;;;;;;;;;6233272;28;20111;-68
2023/08/25 17:09:37;;;;;;;11.50;6.63;;;;;;;;;;6262653;27;20106;-69
2023/08/25 17:12:39;;;;;;;8.63;7.13;;;;;;;;;;6245931;27;20966;-69
2023/08/25 17:15:41;;;;;;;11.02;6.72;;;;;;;;;;6226788;28;20042;-68
2023/08/25 17:18:43;;;;;;;9.30;6.68;;;;;;;;;;6226734;27;20064;-69
2023/08/25 17:21:46;;;;;;;9.45;7.13;;;;;;;;;;6224212;28;20140;-69
2023/08/25 17:24:48;;;;;;;10.32;7.32;;;;;;;;;;6233757;27;20186;-69
2023/08/25 17:27:51;;;;;;;9.93;6.80;;;;;;;;;;6233570;27;20060;-69
2023/08/25 17:31:06;;;;;;;10.60;6.90;;;;;;;;;;6240476;27;20076;-69
2023/08/25 17:34:09;;;;;;;11.48;7.53;;;;;;;;;;6241602;27;20075;-69
2023/08/25 17:37:12;;;;;;;11.00;7.22;;;;;;;;;;6248854;27;20474;-69
2023/08/25 17:40:15;;;;;;;13.50;6.72;;;;;;;;;;6232473;27;20068;-69
2023/08/25 17:43:17;;;;;;;9.73;7.07;;;;;;;;;;6235284;27;20042;-69
2023/08/25 17:46:19;;;;;;;9.32;7.88;;;;;;;;;;6233189;27;20061;-69
2023/08/25 17:49:21;;;;;;;15.10;9.60;;;;;;;;;;6241670;27;20054;-69
2023/08/25 17:52:23;;;;;;;59.58;43.15;;;;;;;;;;6225688;28;20041;-69
2023/08/25 17:55:26;;;;;;;20.48;14.30;;;;;;;;;;6239414;27;20428;-69
2023/08/25 17:58:28;;;;;;;17.05;12.85;;;;;;;;;;6228241;27;20045;-69
2023/08/25 18:01:30;;;;;;;21.58;13.82;;;;;;;;;;6225075;27;20057;-69
2023/08/25 18:04:32;;;;;;;40.60;26.95;;;;;;;;;;6269232;27;20140;-68